sensor_id;sensor_type;location;lat;lon;timestamp;pressure;altitude;pressure_sealevel;temperature;humidity
9474;BME280;8865;47.636;7.692;2024-02-04T00:00:03;99731.00;;;6.82;100.00
9474;BME280;8865;47.636;7.692;2024-02-04T00:02:31;99719.41;;;6.88;100.00
9474;BME280;8865;47.636;7.692;2024-02-04T00:04:57;99722.75;;;6.91;100.00
9474;BME280;8865;47.636;7.692;2024-02-04T00:07:23;99728.78;;;6.92;100.00
9474;BME280;8865;47.636;7.692;2024-02-04T00:09:49;99729.22;;;6.83;100.00
9474;BME280;8865;47.636;7.692;2024-02-04T00:12:15;99737.03;;;6.83;100.00
9474;BME280;8865;47.636;7.692;2024-02-04T00:14:41;99728.81;;;6.73;100.00
9474;BME280;8865;47.636;7.692;2024-02-04T00:17:07;99730.28;;;6.78;100.00
9474;BME280;8865;47.636;7.692;2024-02-04T00:19:33;99719.38;;;6.70;100.00
9474;BME280;8865;47.636;7.692;2024-02-04T00:21:59;99718.56;;;6.70;100.00
9474;BME280;8865;47.636;7.692;2024-02-04T00:24:25;99727.06;;;6.73;100.00
9474;BME280;8865;47.636;7.692;2024-02-04T00:26:51;99732.81;;;6.80;100.00
9474;BME280;8865;47.636;7.692;2024-02-04T00:29:17;99731.34;;;6.74;100.00
9474;BME280;8865;47.636;7.692;2024-02-04T00:31:43;99735.56;;;6.77;100.00
9474;BME280;8865;47.636;7.692;2024-02-04T00:34:09;99738.09;;;6.78;100.00
9474;BME280;8865;47.636;7.692;2024-02-04T00:36:35;99737.03;;;6.83;100.00
9474;BME280;8865;47.636;7.692;2024-02-04T00:39:01;99731.50;;;6.71;100.00
9474;BME280;8865;47.636;7.692;2024-02-04T00:41:26;99731.22;;;6.77;100.00
9474;BME280;8865;47.636;7.692;2024-02-04T00:43:52;99724.38;;;6.75;100.00
9474;BME280;8865;47.636;7.692;2024-02-04T00:46:18;99707.69;;;6.79;100.00
9474;BME280;8865;47.636;7.692;2024-02-04T00:48:45;99712.84;;;6.61;100.00
9474;BME280;8865;47.636;7.692;2024-02-04T00:51:11;99711.84;;;6.64;100.00
9474;BME280;8865;47.636;7.692;2024-02-04T00:53:38;99710.16;;;6.63;100.00
9474;BME280;8865;47.636;7.692;2024-02-04T00:56:05;99697.72;;;6.51;100.00
9474;BME280;8865;47.636;7.692;2024-02-04T00:58:31;99696.75;;;6.34;100.00
9474;BME280;8865;47.636;7.692;2024-02-04T01:00:57;99702.44;;;6.42;100.00
9474;BME280;8865;47.636;7.692;2024-02-04T01:03:23;99704.75;;;6.49;100.00
9474;BME280;8865;47.636;7.692;2024-02-04T01:05:50;99698.00;;;6.44;100.00
9474;BME280;8865;47.636;7.692;2024-02-04T01:08:16;99700.25;;;6.33;100.00
9474;BME280;8865;47.636;7.692;2024-02-04T01:10:42;99691.63;;;6.33;100.00
9474;BME280;8865;47.636;7.692;2024-02-04T01:13:08;99678.59;;;6.33;100.00
9474;BME280;8865;47.636;7.692;2024-02-04T01:15:34;99664.31;;;6.22;100.00
9474;BME280;8865;47.636;7.692;2024-02-04T01:18:00;99657.47;;;6.20;100.00
9474;BME280;8865;47.636;7.692;2024-02-04T01:20:26;99657.00;;;6.31;100.00
9474;BME280;8865;47.636;7.692;2024-02-04T01:22:52;99661.44;;;6.29;100.00
9474;BME280;8865;47.636;7.692;2024-02-04T01:25:18;99664.66;;;6.34;100.00
9474;BME280;8865;47.636;7.692;2024-02-04T01:27:44;99661.44;;;6.29;100.00
9474;BME280;8865;47.636;7.692;2024-02-04T01:30:10;99656.44;;;6.24;100.00
9474;BME280;8865;47.636;7.692;2024-02-04T01:32:37;99663.97;;;6.30;100.00
9474;BME280;8865;47.636;7.692;2024-02-04T01:35:03;99680.84;;;6.40;100.00
9474;BME280;8865;47.636;7.692;2024-02-04T01:37:30;99675.78;;;6.37;100.00
9474;BME280;8865;47.636;7.692;2024-02-04T01:39:56;99673.41;;;6.33;100.00
9474;BME280;8865;47.636;7.692;2024-02-04T01:42:21;99675.00;;;6.35;100.00
9474;BME280;8865;47.636;7.692;2024-02-04T01:44:47;99667.31;;;6.32;100.00
9474;BME280;8865;47.636;7.692;2024-02-04T01:47:14;99650.44;;;6.41;100.00
9474;BME280;8865;47.636;7.692;2024-02-04T01:49:40;99649.63;;;6.40;100.00
9474;BME280;8865;47.636;7.692;2024-02-04T01:52:07;99663.47;;;6.41;100.00
9474;BME280;8865;47.636;7.692;2024-02-04T01:54:34;99661.69;;;6.41;100.00
9474;BME280;8865;47.636;7.692;2024-02-04T01:57:00;99665.53;;;6.34;100.00
9474;BME280;8865;47.636;7.692;2024-02-04T01:59:27;99669.28;;;6.46;100.00
9474;BME280;8865;47.636;7.692;2024-02-04T02:01:59;99663.66;;;6.55;100.00
9474;BME280;8865;47.636;7.692;2024-02-04T02:04:25;99678.22;;;6.59;100.00
9474;BME280;8865;47.636;7.692;2024-02-04T02:06:55;99675.91;;;6.53;100.00
9474;BME280;8865;47.636;7.692;2024-02-04T02:09:21;99680.13;;;6.56;100.00
9474;BME280;8865;47.636;7.692;2024-02-04T02:12:08;99685.22;;;6.59;100.00
9474;BME280;8865;47.636;7.692;2024-02-04T02:14:44;99679.78;;;6.64;100.00
9474;BME280;8865;47.636;7.692;2024-02-04T02:17:15;99668.34;;;6.66;100.00
9474;BME280;8865;47.636;7.692;2024-02-04T02:23:06;99666.19;;;6.76;100.00
9474;BME280;8865;47.636;7.692;2024-02-04T02:25:35;99649.53;;;6.78;100.00
9474;BME280;8865;47.636;7.692;2024-02-04T02:28:02;99644.78;;;6.69;100.00
9474;BME280;8865;47.636;7.692;2024-02-04T02:30:28;99645.56;;;6.71;100.00
9474;BME280;8865;47.636;7.692;2024-02-04T02:32:54;99647.44;;;6.68;100.00
9474;BME280;8865;47.636;7.692;2024-02-04T02:35:20;99653.38;;;6.71;100.00
9474;BME280;8865;47.636;7.692;2024-02-04T02:37:59;99655.75;;;6.76;100.00
9474;BME280;8865;47.636;7.692;2024-02-04T02:40:32;99669.47;;;6.79;100.00
9474;BME280;8865;47.636;7.692;2024-02-04T02:43:01;99663.97;;;6.86;100.00
9474;BME280;8865;47.636;7.692;2024-02-04T02:45:28;99662.91;;;6.90;100.00
9474;BME280;8865;47.636;7.692;2024-02-04T02:47:54;99672.31;;;6.92;100.00
9474;BME280;8865;47.636;7.692;2024-02-04T02:50:21;99666.06;;;6.96;100.00
9474;BME280;8865;47.636;7.692;2024-02-04T02:52:47;99665.22;;;6.96;100.00
9474;BME280;8865;47.636;7.692;2024-02-04T02:55:13;99666.13;;;6.95;100.00
9474;BME280;8865;47.636;7.692;2024-02-04T02:57:40;99680.78;;;6.97;100.00
9474;BME280;8865;47.636;7.692;2024-02-04T03:00:06;99673.50;;;7.04;100.00
9474;BME280;8865;47.636;7.692;2024-02-04T03:02:32;99675.19;;;7.05;100.00
9474;BME280;8865;47.636;7.692;2024-02-04T03:04:58;99675.28;;;7.04;100.00
9474;BME280;8865;47.636;7.692;2024-02-04T03:07:24;99675.28;;;7.04;100.00
9474;BME280;8865;47.636;7.692;2024-02-04T03:09:53;99680.63;;;7.01;100.00
9474;BME280;8865;47.636;7.692;2024-02-04T03:12:20;99669.34;;;7.00;100.00
9474;BME280;8865;47.636;7.692;2024-02-04T03:14:46;99671.66;;;7.06;100.00
9474;BME280;8865;47.636;7.692;2024-02-04T03:17:12;99659.94;;;7.15;100.00
9474;BME280;8865;47.636;7.692;2024-02-04T03:19:39;99657.47;;;7.12;100.00
9474;BME280;8865;47.636;7.692;2024-02-04T03:22:05;99664.16;;;7.18;100.00
9474;BME280;8865;47.636;7.692;2024-02-04T03:24:31;99674.50;;;7.19;100.00
9474;BME280;8865;47.636;7.692;2024-02-04T03:26:57;99671.03;;;7.19;100.00
9474;BME280;8865;47.636;7.692;2024-02-04T03:29:23;99679.72;;;7.19;100.00
9474;BME280;8865;47.636;7.692;2024-02-04T03:31:49;99689.91;;;7.24;100.00
9474;BME280;8865;47.636;7.692;2024-02-04T03:34:15;99695.66;;;7.13;100.00
9474;BME280;8865;47.636;7.692;2024-02-04T03:36:41;99693.56;;;7.02;100.00
9474;BME280;8865;47.636;7.692;2024-02-04T03:39:07;99704.69;;;7.06;100.00
9474;BME280;8865;47.636;7.692;2024-02-04T03:41:33;99699.41;;;7.07;100.00
9474;BME280;8865;47.636;7.692;2024-02-04T03:43:59;99702.16;;;7.04;100.00
9474;BME280;8865;47.636;7.692;2024-02-04T03:46:25;99701.25;;;7.05;100.00
9474;BME280;8865;47.636;7.692;2024-02-04T03:48:51;99699.78;;;7.00;100.00
9474;BME280;8865;47.636;7.692;2024-02-04T03:51:18;99705.06;;;6.98;100.00
9474;BME280;8865;47.636;7.692;2024-02-04T03:53:45;99705.66;;;7.03;100.00
9474;BME280;8865;47.636;7.692;2024-02-04T03:56:11;99701.38;;;7.02;100.00
9474;BME280;8865;47.636;7.692;2024-02-04T03:58:37;99699.09;;;6.96;100.00
9474;BME280;8865;47.636;7.692;2024-02-04T04:01:03;99706.09;;;6.94;100.00
9474;BME280;8865;47.636;7.692;2024-02-04T04:03:29;99704.72;;;6.87;100.00
9474;BME280;8865;47.636;7.692;2024-02-04T04:05:55;99704.59;;;6.90;100.00
9474;BME280;8865;47.636;7.692;2024-02-04T04:08:21;99703.50;;;6.94;100.00
9474;BME280;8865;47.636;7.692;2024-02-04T04:10:47;99704.69;;;7.06;100.00
9474;BME280;8865;47.636;7.692;2024-02-04T04:13:13;99694.66;;;7.15;100.00
9474;BME280;8865;47.636;7.692;2024-02-04T04:15:39;99690.00;;;7.22;100.00
9474;BME280;8865;47.636;7.692;2024-02-04T04:18:05;99693.59;;;7.20;100.00
9474;BME280;8865;47.636;7.692;2024-02-04T04:20:31;99686.53;;;7.22;100.00
9474;BME280;8865;47.636;7.692;2024-02-04T04:22:57;99678.41;;;7.28;100.00
9474;BME280;8865;47.636;7.692;2024-02-04T04:25:23;99682.56;;;7.32;100.00
9474;BME280;8865;47.636;7.692;2024-02-04T04:27:49;99681.56;;;7.35;100.00
9474;BME280;8865;47.636;7.692;2024-02-04T04:30:15;99683.16;;;7.37;100.00
9474;BME280;8865;47.636;7.692;2024-02-04T04:32:41;99673.69;;;7.36;100.00
9474;BME280;8865;47.636;7.692;2024-02-04T04:35:07;99678.72;;;7.39;100.00
9474;BME280;8865;47.636;7.692;2024-02-04T04:37:33;99668.06;;;7.26;100.00
9474;BME280;8865;47.636;7.692;2024-02-04T04:39:59;99672.22;;;7.30;100.00
9474;BME280;8865;47.636;7.692;2024-02-04T04:42:25;99663.94;;;7.22;100.00
9474;BME280;8865;47.636;7.692;2024-02-04T04:44:51;99655.03;;;7.26;100.00
9474;BME280;8865;47.636;7.692;2024-02-04T04:47:17;99662.00;;;7.26;100.00
9474;BME280;8865;47.636;7.692;2024-02-04T04:49:43;99669.91;;;7.24;100.00
9474;BME280;8865;47.636;7.692;2024-02-04T04:52:09;99663.72;;;7.27;100.00
9474;BME280;8865;47.636;7.692;2024-02-04T04:54:35;99656.88;;;7.24;100.00
9474;BME280;8865;47.636;7.692;2024-02-04T04:57:01;99654.19;;;7.26;100.00
9474;BME280;8865;47.636;7.692;2024-02-04T04:59:27;99654.03;;;7.29;100.00
9474;BME280;8865;47.636;7.692;2024-02-04T05:01:53;99648.81;;;7.29;100.00
9474;BME280;8865;47.636;7.692;2024-02-04T05:04:19;99642.53;;;7.33;100.00
9474;BME280;8865;47.636;7.692;2024-02-04T05:06:45;99649.44;;;7.34;100.00
9474;BME280;8865;47.636;7.692;2024-02-04T05:09:11;99645.84;;;7.37;100.00
9474;BME280;8865;47.636;7.692;2024-02-04T05:11:37;99658.94;;;7.35;100.00
9474;BME280;8865;47.636;7.692;2024-02-04T05:14:03;99657.97;;;7.38;100.00
9474;BME280;8865;47.636;7.692;2024-02-04T05:16:30;99662.47;;;7.34;100.00
9474;BME280;8865;47.636;7.692;2024-02-04T05:18:56;99666.91;;;7.32;100.00
9474;BME280;8865;47.636;7.692;2024-02-04T05:21:22;99665.06;;;7.34;100.00
9474;BME280;8865;47.636;7.692;2024-02-04T05:23:48;99665.84;;;7.36;100.00
9474;BME280;8865;47.636;7.692;2024-02-04T05:26:13;99661.63;;;7.33;100.00
9474;BME280;8865;47.636;7.692;2024-02-04T05:28:40;99654.72;;;7.32;100.00
9474;BME280;8865;47.636;7.692;2024-02-04T05:31:06;99655.81;;;7.28;100.00
9474;BME280;8865;47.636;7.692;2024-02-04T05:33:32;99670.44;;;7.31;100.00
9474;BME280;8865;47.636;7.692;2024-02-04T05:35:58;99672.34;;;7.27;100.00
9474;BME280;8865;47.636;7.692;2024-02-04T05:38:24;99688.97;;;7.25;100.00
9474;BME280;8865;47.636;7.692;2024-02-04T05:40:49;99682.63;;;7.30;100.00
9474;BME280;8865;47.636;7.692;2024-02-04T05:43:15;99680.72;;;7.34;100.00
9474;BME280;8865;47.636;7.692;2024-02-04T05:45:41;99678.25;;;7.31;100.00
9474;BME280;8865;47.636;7.692;2024-02-04T05:48:08;99681.78;;;7.30;100.00
9474;BME280;8865;47.636;7.692;2024-02-04T05:50:34;99677.66;;;7.26;100.00
9474;BME280;8865;47.636;7.692;2024-02-04T05:53:00;99676.09;;;7.22;100.00
9474;BME280;8865;47.636;7.692;2024-02-04T05:55:26;99671.69;;;7.24;100.00
9474;BME280;8865;47.636;7.692;2024-02-04T05:57:53;99662.84;;;7.26;100.00
9474;BME280;8865;47.636;7.692;2024-02-04T06:00:19;99659.63;;;7.21;100.00
9474;BME280;8865;47.636;7.692;2024-02-04T06:02:45;99660.47;;;7.22;100.00
9474;BME280;8865;47.636;7.692;2024-02-04T06:05:12;99670.75;;;7.25;100.00
9474;BME280;8865;47.636;7.692;2024-02-04T06:07:39;99678.56;;;7.25;100.00
9474;BME280;8865;47.636;7.692;2024-02-04T06:10:09;99687.91;;;7.29;100.00
9474;BME280;8865;47.636;7.692;2024-02-04T06:12:35;99692.22;;;7.30;100.00
9474;BME280;8865;47.636;7.692;2024-02-04T06:15:01;99688.44;;;7.18;100.00
9474;BME280;8865;47.636;7.692;2024-02-04T06:17:27;99687.63;;;7.18;100.00
9474;BME280;8865;47.636;7.692;2024-02-04T06:19:53;99699.03;;;7.15;100.00
9474;BME280;8865;47.636;7.692;2024-02-04T06:22:19;99702.31;;;7.19;100.00
9474;BME280;8865;47.636;7.692;2024-02-04T06:24:46;99705.72;;;7.21;100.00
9474;BME280;8865;47.636;7.692;2024-02-04T06:27:12;99708.63;;;7.14;100.00
9474;BME280;8865;47.636;7.692;2024-02-04T06:29:38;99710.84;;;7.22;100.00
9474;BME280;8865;47.636;7.692;2024-02-04T06:32:05;99706.31;;;7.26;100.00
9474;BME280;8865;47.636;7.692;2024-02-04T06:34:32;99705.34;;;7.28;100.00
9474;BME280;8865;47.636;7.692;2024-02-04T06:36:58;99705.09;;;7.33;100.00
9474;BME280;8865;47.636;7.692;2024-02-04T06:39:24;99703.25;;;7.35;100.00
9474;BME280;8865;47.636;7.692;2024-02-04T06:41:50;99704.47;;;7.28;100.00
9474;BME280;8865;47.636;7.692;2024-02-04T06:44:16;99702.94;;;7.24;100.00
9474;BME280;8865;47.636;7.692;2024-02-04T06:46:42;99704.63;;;7.25;100.00
9474;BME280;8865;47.636;7.692;2024-02-04T06:49:08;99698.72;;;7.21;100.00
9474;BME280;8865;47.636;7.692;2024-02-04T06:51:34;99705.94;;;7.16;100.00
9474;BME280;8865;47.636;7.692;2024-02-04T06:54:00;99702.53;;;7.14;100.00
9474;BME280;8865;47.636;7.692;2024-02-04T06:56:27;99703.41;;;7.14;100.00
9474;BME280;8865;47.636;7.692;2024-02-04T06:58:53;99700.00;;;7.12;100.00
9474;BME280;8865;47.636;7.692;2024-02-04T07:01:19;99712.66;;;7.20;100.00
9474;BME280;8865;47.636;7.692;2024-02-04T07:03:45;99720.69;;;6.98;100.00
9474;BME280;8865;47.636;7.692;2024-02-04T07:06:11;99730.13;;;7.01;100.00
9474;BME280;8865;47.636;7.692;2024-02-04T07:08:37;99735.03;;;7.07;100.00
9474;BME280;8865;47.636;7.692;2024-02-04T07:11:03;99739.25;;;7.09;100.00
9474;BME280;8865;47.636;7.692;2024-02-04T07:13:29;99747.47;;;7.19;100.00
9474;BME280;8865;47.636;7.692;2024-02-04T07:15:55;99737.44;;;7.29;100.00
9474;BME280;8865;47.636;7.692;2024-02-04T07:18:21;99735.38;;;7.36;100.00
9474;BME280;8865;47.636;7.692;2024-02-04T07:20:48;99734.84;;;7.29;100.00
9474;BME280;8865;47.636;7.692;2024-02-04T07:23:14;99731.09;;;7.35;100.00
9474;BME280;8865;47.636;7.692;2024-02-04T07:25:40;99722.34;;;7.36;100.00
9474;BME280;8865;47.636;7.692;2024-02-04T07:28:07;99719.72;;;7.36;100.00
9474;BME280;8865;47.636;7.692;2024-02-04T07:30:33;99730.63;;;7.44;100.00
9474;BME280;8865;47.636;7.692;2024-02-04T07:32:59;99728.56;;;7.33;100.00
9474;BME280;8865;47.636;7.692;2024-02-04T07:35:25;99725.97;;;7.33;100.00
9474;BME280;8865;47.636;7.692;2024-02-04T07:37:52;99710.91;;;7.21;100.00
9474;BME280;8865;47.636;7.692;2024-02-04T07:40:18;99712.34;;;7.09;100.00
9474;BME280;8865;47.636;7.692;2024-02-04T07:42:44;99714.66;;;7.15;100.00
9474;BME280;8865;47.636;7.692;2024-02-04T07:45:10;99705.63;;;7.22;100.00
9474;BME280;8865;47.636;7.692;2024-02-04T07:47:36;99710.84;;;7.40;100.00
9474;BME280;8865;47.636;7.692;2024-02-04T07:50:05;99706.19;;;7.46;100.00
9474;BME280;8865;47.636;7.692;2024-02-04T07:52:31;99711.53;;;7.61;100.00
9474;BME280;8865;47.636;7.692;2024-02-04T07:54:57;99703.88;;;7.40;100.00
9474;BME280;8865;47.636;7.692;2024-02-04T07:57:23;99704.78;;;7.57;100.00
9474;BME280;8865;47.636;7.692;2024-02-04T07:59:49;99700.13;;;7.63;100.00
9474;BME280;8865;47.636;7.692;2024-02-04T08:02:15;99701.28;;;7.58;100.00
9474;BME280;8865;47.636;7.692;2024-02-04T08:04:41;99704.25;;;7.85;100.00
9474;BME280;8865;47.636;7.692;2024-02-04T08:07:08;99703.97;;;8.07;100.00
9474;BME280;8865;47.636;7.692;2024-02-04T08:09:34;99699.41;;;8.11;100.00
9474;BME280;8865;47.636;7.692;2024-02-04T08:12:00;99696.84;;;8.27;100.00
9474;BME280;8865;47.636;7.692;2024-02-04T08:14:26;99692.50;;;8.43;100.00
9474;BME280;8865;47.636;7.692;2024-02-04T08:16:52;99687.28;;;8.59;100.00
9474;BME280;8865;47.636;7.692;2024-02-04T08:19:18;99672.41;;;8.28;100.00
9474;BME280;8865;47.636;7.692;2024-02-04T08:21:44;99670.13;;;8.21;100.00
9474;BME280;8865;47.636;7.692;2024-02-04T08:24:11;99678.41;;;8.30;100.00
9474;BME280;8865;47.636;7.692;2024-02-04T08:26:37;99685.94;;;8.02;100.00
9474;BME280;8865;47.636;7.692;2024-02-04T08:29:03;99683.97;;;8.23;100.00
9474;BME280;8865;47.636;7.692;2024-02-04T08:31:32;99682.00;;;8.61;100.00
9474;BME280;8865;47.636;7.692;2024-02-04T08:34:01;99687.72;;;8.83;100.00
9474;BME280;8865;47.636;7.692;2024-02-04T08:36:29;99684.19;;;8.68;100.00
9474;BME280;8865;47.636;7.692;2024-02-04T08:38:56;99673.59;;;9.02;100.00
9474;BME280;8865;47.636;7.692;2024-02-04T08:41:23;99674.84;;;9.10;100.00
9474;BME280;8865;47.636;7.692;2024-02-04T08:43:49;99659.31;;;9.23;100.00
9474;BME280;8865;47.636;7.692;2024-02-04T08:46:16;99657.03;;;9.62;100.00
9474;BME280;8865;47.636;7.692;2024-02-04T08:48:42;99666.50;;;10.08;100.00
9474;BME280;8865;47.636;7.692;2024-02-04T08:51:12;99669.56;;;10.14;100.00
9474;BME280;8865;47.636;7.692;2024-02-04T08:53:42;99680.78;;;10.45;100.00
9474;BME280;8865;47.636;7.692;2024-02-04T08:56:08;99670.22;;;10.47;100.00
9474;BME280;8865;47.636;7.692;2024-02-04T08:58:35;99671.16;;;10.46;100.00
9474;BME280;8865;47.636;7.692;2024-02-04T09:01:03;99676.19;;;10.49;100.00
9474;BME280;8865;47.636;7.692;2024-02-04T09:03:30;99669.09;;;10.36;100.00
9474;BME280;8865;47.636;7.692;2024-02-04T09:05:57;99666.19;;;10.27;100.00
9474;BME280;8865;47.636;7.692;2024-02-04T09:08:23;99669.94;;;10.23;100.00
9474;BME280;8865;47.636;7.692;2024-02-04T09:10:49;99669.56;;;10.14;100.00
9474;BME280;8865;47.636;7.692;2024-02-04T09:13:16;99663.56;;;9.55;100.00
9474;BME280;8865;47.636;7.692;2024-02-04T09:15:42;99665.94;;;10.02;100.00
9474;BME280;8865;47.636;7.692;2024-02-04T09:18:08;99658.25;;;10.28;100.00
9474;BME280;8865;47.636;7.692;2024-02-04T09:20:35;99663.50;;;9.85;100.00
9474;BME280;8865;47.636;7.692;2024-02-04T09:23:01;99663.28;;;10.31;100.00
9474;BME280;8865;47.636;7.692;2024-02-04T09:25:27;99653.81;;;10.72;100.00
9474;BME280;8865;47.636;7.692;2024-02-04T09:27:53;99657.47;;;10.82;100.00
9474;BME280;8865;47.636;7.692;2024-02-04T09:30:19;99647.56;;;11.79;100.00
9474;BME280;8865;47.636;7.692;2024-02-04T09:32:46;99655.94;;;13.08;100.00
9474;BME280;8865;47.636;7.692;2024-02-04T09:35:13;99645.72;;;14.31;98.85
9474;BME280;8865;47.636;7.692;2024-02-04T09:37:39;99650.69;;;14.13;96.32
9474;BME280;8865;47.636;7.692;2024-02-04T09:40:06;99650.91;;;13.99;98.03
9474;BME280;8865;47.636;7.692;2024-02-04T09:42:32;99647.44;;;13.29;100.00
9474;BME280;8865;47.636;7.692;2024-02-04T09:44:58;99639.75;;;12.90;100.00
9474;BME280;8865;47.636;7.692;2024-02-04T09:47:24;99635.41;;;12.41;100.00
9474;BME280;8865;47.636;7.692;2024-02-04T09:49:52;99626.38;;;12.08;100.00
9474;BME280;8865;47.636;7.692;2024-02-04T09:52:30;99622.59;;;11.99;100.00
9474;BME280;8865;47.636;7.692;2024-02-04T09:55:02;99623.88;;;11.68;100.00
9474;BME280;8865;47.636;7.692;2024-02-04T09:57:32;99621.66;;;11.87;100.00
9474;BME280;8865;47.636;7.692;2024-02-04T10:00:02;99615.75;;;11.84;100.00
9474;BME280;8865;47.636;7.692;2024-02-04T10:02:31;99612.41;;;11.82;100.00
9474;BME280;8865;47.636;7.692;2024-02-04T10:04:58;99616.03;;;12.18;100.00
9474;BME280;8865;47.636;7.692;2024-02-04T10:07:24;99614.09;;;11.57;100.00
9474;BME280;8865;47.636;7.692;2024-02-04T10:09:50;99612.22;;;11.46;100.00
9474;BME280;8865;47.636;7.692;2024-02-04T10:12:19;99603.28;;;11.49;100.00
9474;BME280;8865;47.636;7.692;2024-02-04T10:14:45;99602.94;;;12.90;100.00
9474;BME280;8865;47.636;7.692;2024-02-04T10:17:15;99611.63;;;13.96;100.00
9474;BME280;8865;47.636;7.692;2024-02-04T10:19:41;99608.88;;;15.28;92.56
9474;BME280;8865;47.636;7.692;2024-02-04T10:22:07;99601.75;;;17.68;66.13
9474;BME280;8865;47.636;7.692;2024-02-04T10:24:33;99601.56;;;17.79;62.21
9474;BME280;8865;47.636;7.692;2024-02-04T10:26:59;99609.84;;;16.90;66.65
9474;BME280;8865;47.636;7.692;2024-02-04T10:29:25;99606.91;;;17.03;62.40
9474;BME280;8865;47.636;7.692;2024-02-04T10:31:55;99626.91;;;17.44;61.22
9474;BME280;8865;47.636;7.692;2024-02-04T10:34:25;99621.63;;;17.44;59.90
9474;BME280;8865;47.636;7.692;2024-02-04T10:36:51;99615.13;;;15.79;65.16
9474;BME280;8865;47.636;7.692;2024-02-04T10:39:17;99617.34;;;15.32;70.75
9474;BME280;8865;47.636;7.692;2024-02-04T10:41:49;99603.25;;;15.74;71.42
9474;BME280;8865;47.636;7.692;2024-02-04T10:44:18;99603.16;;;16.95;63.72
9474;BME280;8865;47.636;7.692;2024-02-04T10:46:47;99599.16;;;18.24;59.47
9474;BME280;8865;47.636;7.692;2024-02-04T10:49:15;99588.69;;;18.86;54.71
9474;BME280;8865;47.636;7.692;2024-02-04T10:51:42;99593.03;;;18.41;56.36
9474;BME280;8865;47.636;7.692;2024-02-04T10:54:08;99597.69;;;18.75;53.71
9474;BME280;8865;47.636;7.692;2024-02-04T10:56:39;99596.56;;;19.92;51.67
9474;BME280;8865;47.636;7.692;2024-02-04T10:59:09;99584.97;;;21.91;45.26
9474;BME280;8865;47.636;7.692;2024-02-04T11:01:38;99584.97;;;24.64;39.59
9474;BME280;8865;47.636;7.692;2024-02-04T11:04:05;99581.88;;;26.09;35.07
9474;BME280;8865;47.636;7.692;2024-02-04T11:06:32;99569.88;;;24.41;35.42
9474;BME280;8865;47.636;7.692;2024-02-04T11:08:59;99584.84;;;22.55;38.70
9474;BME280;8865;47.636;7.692;2024-02-04T11:11:26;99589.31;;;21.92;41.20
9474;BME280;8865;47.636;7.692;2024-02-04T11:13:56;99592.50;;;21.79;41.11
9474;BME280;8865;47.636;7.692;2024-02-04T11:16:50;99589.22;;;22.48;40.08
9474;BME280;8865;47.636;7.692;2024-02-04T11:24:54;99581.63;;;20.67;42.99
9474;BME280;8865;47.636;7.692;2024-02-04T11:27:26;99566.19;;;21.84;42.07
9474;BME280;8865;47.636;7.692;2024-02-04T11:29:53;99554.53;;;23.09;39.38
9474;BME280;8865;47.636;7.692;2024-02-04T11:32:19;99549.13;;;23.92;38.23
9474;BME280;8865;47.636;7.692;2024-02-04T11:34:46;99538.94;;;25.67;35.50
9474;BME280;8865;47.636;7.692;2024-02-04T11:37:16;99540.19;;;26.19;33.86
9474;BME280;8865;47.636;7.692;2024-02-04T11:39:54;99537.53;;;26.33;33.49
9474;BME280;8865;47.636;7.692;2024-02-04T11:42:25;99536.16;;;27.96;31.45
9474;BME280;8865;47.636;7.692;2024-02-04T11:45:07;99527.44;;;28.71;28.77
9474;BME280;8865;47.636;7.692;2024-02-04T11:47:34;99531.53;;;29.24;28.14
9474;BME280;8865;47.636;7.692;2024-02-04T11:50:01;99532.66;;;28.91;28.15
9474;BME280;8865;47.636;7.692;2024-02-04T11:52:28;99531.44;;;28.62;27.97
9474;BME280;8865;47.636;7.692;2024-02-04T11:54:55;99542.38;;;26.71;30.45
9474;BME280;8865;47.636;7.692;2024-02-04T11:57:22;99537.84;;;26.03;31.82
9474;BME280;8865;47.636;7.692;2024-02-04T11:59:50;99543.41;;;25.53;32.27
9474;BME280;8865;47.636;7.692;2024-02-04T12:02:17;99541.53;;;25.54;32.31
9474;BME280;8865;47.636;7.692;2024-02-04T12:04:46;99540.53;;;24.98;33.30
9474;BME280;8865;47.636;7.692;2024-02-04T12:07:14;99540.22;;;24.21;34.07
9474;BME280;8865;47.636;7.692;2024-02-04T12:09:41;99532.13;;;24.15;35.11
9474;BME280;8865;47.636;7.692;2024-02-04T12:12:08;99533.09;;;24.72;34.46
9474;BME280;8865;47.636;7.692;2024-02-04T12:14:39;99526.25;;;25.19;32.61
9474;BME280;8865;47.636;7.692;2024-02-04T12:17:10;99534.88;;;25.43;32.27
9474;BME280;8865;47.636;7.692;2024-02-04T12:19:36;99529.94;;;25.88;31.48
9474;BME280;8865;47.636;7.692;2024-02-04T12:22:03;99529.94;;;23.74;34.35
9474;BME280;8865;47.636;7.692;2024-02-04T12:24:36;99529.09;;;26.49;31.45
9474;BME280;8865;47.636;7.692;2024-02-04T12:27:04;99529.34;;;26.88;29.74
9474;BME280;8865;47.636;7.692;2024-02-04T12:29:32;99518.59;;;26.88;29.89
9474;BME280;8865;47.636;7.692;2024-02-04T12:32:02;99517.91;;;26.46;29.45
9474;BME280;8865;47.636;7.692;2024-02-04T12:34:29;99516.72;;;26.88;29.82
9474;BME280;8865;47.636;7.692;2024-02-04T12:37:00;99514.91;;;27.74;28.97
9474;BME280;8865;47.636;7.692;2024-02-04T12:39:26;99516.91;;;27.86;28.84
9474;BME280;8865;47.636;7.692;2024-02-04T12:41:53;99509.13;;;27.71;28.66
9474;BME280;8865;47.636;7.692;2024-02-04T12:44:19;99501.91;;;27.58;28.57
9474;BME280;8865;47.636;7.692;2024-02-04T12:46:45;99507.00;;;26.94;29.37
9474;BME280;8865;47.636;7.692;2024-02-04T12:49:21;99506.34;;;26.65;29.21
9474;BME280;8865;47.636;7.692;2024-02-04T12:51:48;99513.28;;;25.51;31.18
9474;BME280;8865;47.636;7.692;2024-02-04T12:54:15;99502.25;;;25.39;31.38
9474;BME280;8865;47.636;7.692;2024-02-04T12:59:43;99500.25;;;23.53;33.97
9474;BME280;8865;47.636;7.692;2024-02-04T13:02:13;99494.59;;;22.89;34.92
9474;BME280;8865;47.636;7.692;2024-02-04T13:04:41;99503.13;;;21.44;36.82
9474;BME280;8865;47.636;7.692;2024-02-04T13:07:09;99485.91;;;20.41;39.30
9474;BME280;8865;47.636;7.692;2024-02-04T13:09:36;99488.06;;;19.61;41.01
9474;BME280;8865;47.636;7.692;2024-02-04T13:12:03;99485.63;;;19.34;42.45
9474;BME280;8865;47.636;7.692;2024-02-04T13:14:30;99495.34;;;17.63;45.71
9474;BME280;8865;47.636;7.692;2024-02-04T13:16:55;99494.69;;;17.61;47.32
9474;BME280;8865;47.636;7.692;2024-02-04T13:19:21;99490.06;;;17.91;48.14
9474;BME280;8865;47.636;7.692;2024-02-04T13:21:47;99491.94;;;17.53;49.89
9474;BME280;8865;47.636;7.692;2024-02-04T13:24:14;99488.25;;;16.20;53.27
9474;BME280;8865;47.636;7.692;2024-02-04T13:26:40;99490.56;;;15.84;57.58
9474;BME280;8865;47.636;7.692;2024-02-04T13:29:06;99490.41;;;15.14;64.35